createdAt,value
2022-09-04T00:02:38.708Z,7.77
2022-09-04T00:07:13.368Z,7.62
2022-09-04T00:11:34.536Z,7.58
2022-09-04T00:15:44.377Z,7.67
2022-09-04T00:20:32.443Z,7.52
2022-09-04T00:25:08.270Z,7.51
2022-09-04T00:29:45.449Z,7.35
2022-09-04T00:34:32.678Z,7.27
2022-09-04T00:38:40.705Z,7.32
2022-09-04T00:43:02.372Z,7.42
2022-09-04T00:47:16.438Z,7.43
2022-09-04T00:51:43.633Z,7.28
2022-09-04T00:56:27.091Z,7.23
2022-09-04T01:00:30.950Z,7.23
2022-09-04T01:04:58.943Z,7.32
2022-09-04T01:09:31.446Z,7.24
2022-09-04T01:14:08.907Z,7.16
2022-09-04T01:18:44.313Z,7.14
2022-09-04T01:22:58.322Z,7.06
2022-09-04T01:27:10.107Z,7.09
2022-09-04T01:31:24.728Z,7.03
2022-09-04T01:35:32.563Z,7.00
2022-09-04T01:39:38.260Z,6.97
2022-09-04T01:43:40.998Z,6.91
2022-09-04T01:47:50.467Z,6.91
2022-09-04T01:52:13.680Z,6.92
2022-09-04T01:56:25.242Z,6.92
2022-09-04T02:00:30.975Z,6.87
2022-09-04T02:04:47.973Z,6.91
2022-09-04T02:09:27.918Z,6.84
2022-09-04T02:13:45.171Z,6.80
2022-09-04T02:17:56.226Z,6.74
2022-09-04T02:22:26.928Z,6.76
2022-09-04T02:26:58.536Z,6.72
2022-09-04T02:31:30.604Z,6.67
2022-09-04T02:35:52.693Z,6.54
2022-09-04T02:40:13.683Z,6.58
2022-09-04T02:44:15.971Z,6.42
2022-09-04T02:48:29.663Z,6.46
2022-09-04T02:52:41.298Z,6.44
2022-09-04T02:57:08.036Z,6.44
2022-09-04T03:01:22.623Z,6.41
2022-09-04T03:05:30.689Z,6.48
2022-09-04T03:09:36.692Z,6.35
2022-09-04T03:13:38.778Z,6.32
2022-09-04T03:17:51.626Z,6.24
2022-09-04T03:22:11.176Z,6.43
2022-09-04T03:26:36.276Z,6.31
2022-09-04T03:30:39.711Z,6.22
2022-09-04T03:34:47.948Z,6.08
2022-09-04T03:39:28.550Z,6.15
2022-09-04T03:43:52.623Z,6.01
2022-09-04T03:48:22.882Z,6.07
2022-09-04T03:52:58.719Z,6.04
2022-09-04T03:57:32.242Z,6.15
2022-09-04T04:01:42.095Z,6.07
2022-09-04T04:05:49.729Z,6.03
2022-09-04T04:10:19.832Z,6.10
2022-09-04T04:14:38.426Z,6.12
2022-09-04T04:19:10.987Z,6.17
2022-09-04T04:23:18.022Z,6.22
2022-09-04T04:27:58.343Z,6.27
2022-09-04T04:32:14.458Z,6.39
2022-09-04T04:36:31.503Z,6.43
2022-09-04T04:41:10.227Z,6.59
2022-09-04T04:45:52.893Z,6.72
2022-09-04T04:50:10.403Z,6.88
2022-09-04T04:54:45.853Z,7.01
2022-09-04T04:59:09.468Z,7.21
2022-09-04T05:03:25.108Z,7.34
2022-09-04T05:07:42.515Z,7.48
2022-09-04T05:12:16.829Z,7.65
2022-09-04T05:16:56.545Z,7.90
2022-09-04T05:21:13.245Z,8.12
2022-09-04T05:25:31.663Z,8.39
2022-09-04T05:29:36.852Z,8.62
2022-09-04T05:33:43.282Z,8.82
2022-09-04T05:37:55.884Z,9.03
2022-09-04T05:42:11.806Z,9.34
2022-09-04T05:46:38.583Z,9.60
2022-09-04T05:50:40.698Z,9.93
2022-09-04T05:54:50.017Z,10.24
2022-09-04T05:59:26.287Z,10.51
2022-09-04T06:03:44.433Z,10.87
2022-09-04T06:07:53.773Z,11.07
2022-09-04T06:12:29.216Z,11.56
2022-09-04T06:17:03.542Z,12.08
2022-09-04T06:21:30.772Z,12.31
2022-09-04T06:26:06.538Z,12.54
2022-09-04T06:30:11.518Z,12.81
2022-09-04T06:34:38.098Z,13.20
2022-09-04T06:39:00.287Z,13.44
2022-09-04T06:43:35.414Z,13.66
2022-09-04T06:48:17.198Z,13.88
2022-09-04T06:52:25.628Z,14.14
2022-09-04T06:56:51.006Z,14.34
2022-09-04T07:01:26.430Z,14.78
2022-09-04T07:06:02.289Z,15.05
2022-09-04T07:10:49.643Z,15.44
2022-09-04T07:15:23.557Z,15.72
2022-09-04T07:19:28.833Z,15.84
2022-09-04T07:23:39.677Z,16.22
2022-09-04T07:28:19.269Z,16.29
2022-09-04T07:32:41.334Z,16.37
2022-09-04T07:36:58.219Z,16.85
2022-09-04T07:41:30.450Z,17.14
2022-09-04T07:45:40.222Z,17.23
2022-09-04T07:50:01.101Z,17.46
2022-09-04T07:54:42.085Z,17.52
2022-09-04T07:59:03.671Z,17.85
2022-09-04T08:03:36.863Z,17.95
2022-09-04T08:08:19.206Z,18.28
2022-09-04T08:12:45.061Z,18.56
2022-09-04T08:16:48.038Z,18.60
2022-09-04T08:21:15.107Z,18.79
2022-09-04T08:25:46.017Z,18.65
2022-09-04T08:29:53.885Z,18.94
2022-09-04T08:34:24.102Z,19.01
2022-09-04T08:38:56.618Z,19.44
2022-09-04T08:43:05.854Z,19.40
2022-09-04T08:47:37.093Z,19.67
2022-09-04T08:51:45.753Z,19.89
2022-09-04T08:56:18.797Z,20.14
2022-09-04T09:00:23.747Z,19.99
2022-09-04T09:05:03.481Z,19.88
2022-09-04T09:09:28.016Z,19.95
2022-09-04T09:13:47.919Z,20.19
2022-09-04T09:17:58.886Z,20.07
2022-09-04T09:22:06.590Z,20.35
2022-09-04T09:26:29.577Z,20.27
2022-09-04T09:31:06.267Z,20.65
2022-09-04T09:35:09.058Z,20.67
2022-09-04T09:39:34.416Z,20.66
2022-09-04T09:44:24.366Z,20.82
2022-09-04T09:48:44.927Z,20.73
2022-09-04T09:53:01.199Z,21.00
2022-09-04T09:57:03.426Z,20.86
2022-09-04T10:01:24.827Z,20.78
2022-09-04T10:05:45.050Z,20.44
2022-09-04T10:10:00.234Z,20.49
2022-09-04T10:14:17.045Z,20.29
2022-09-04T10:19:02.840Z,20.06
2022-09-04T10:23:23.171Z,20.66
2022-09-04T10:27:43.232Z,21.14
2022-09-04T10:32:10.885Z,21.09
2022-09-04T10:36:31.117Z,21.15
2022-09-04T10:40:43.731Z,21.58
2022-09-04T10:45:21.346Z,21.94
2022-09-04T10:49:38.630Z,22.04
2022-09-04T10:53:40.646Z,21.96
2022-09-04T10:58:09.030Z,21.74
2022-09-04T11:02:39.676Z,21.36
2022-09-04T11:06:58.910Z,21.89
2022-09-04T11:11:16.597Z,22.36
2022-09-04T11:15:52.721Z,22.92
2022-09-04T11:20:21.867Z,22.97
2022-09-04T11:24:49.945Z,23.14
2022-09-04T11:29:00.926Z,23.00
2022-09-04T11:33:37.255Z,22.91
2022-09-04T11:38:00.423Z,22.93
2022-09-04T11:42:27.747Z,22.98
2022-09-04T11:46:51.674Z,22.98
2022-09-04T11:51:10.484Z,22.86
2022-09-04T11:55:34.128Z,23.07
2022-09-04T11:59:51.327Z,22.83
2022-09-04T12:03:53.325Z,22.20
2022-09-04T12:08:21.884Z,21.75
2022-09-04T12:12:42.647Z,21.47
2022-09-04T12:17:03.416Z,21.67
2022-09-04T12:21:41.447Z,22.44
2022-09-04T12:26:01.215Z,23.00
2022-09-04T12:30:26.431Z,23.41
2022-09-04T12:34:50.243Z,23.46
2022-09-04T12:39:10.742Z,23.78
2022-09-04T12:43:42.363Z,22.95
2022-09-04T12:48:10.505Z,22.69
2022-09-04T12:52:39.804Z,22.13
2022-09-04T12:57:26.998Z,21.84
2022-09-04T13:01:50.718Z,21.93
2022-09-04T13:06:11.635Z,22.01
2022-09-04T13:10:33.184Z,21.96
2022-09-04T13:14:45.541Z,21.90
2022-09-04T13:19:17.457Z,21.43
2022-09-04T13:23:57.470Z,21.27
2022-09-04T13:28:19.303Z,21.57
2022-09-04T13:32:47.383Z,22.02
2022-09-04T13:37:04.602Z,22.00
2022-09-04T13:41:36.875Z,22.62
2022-09-04T13:45:50.828Z,22.27
2022-09-04T13:50:10.270Z,22.10
2022-09-04T13:54:21.967Z,22.68
2022-09-04T13:58:39.219Z,22.73
2022-09-04T14:02:42.011Z,22.44
2022-09-04T14:06:45.175Z,22.79
2022-09-04T14:11:21.263Z,23.25
2022-09-04T14:16:03.193Z,22.59
2022-09-04T14:24:45.948Z,22.10
2022-09-04T14:28:54.139Z,22.26
2022-09-04T14:33:06.026Z,22.13
2022-09-04T14:37:13.887Z,22.17
2022-09-04T14:41:48.679Z,22.02
2022-09-04T14:46:10.755Z,22.27
2022-09-04T14:50:17.112Z,22.69
2022-09-04T14:54:33.366Z,22.77
2022-09-04T14:58:41.839Z,22.31
2022-09-04T15:02:43.928Z,22.12
2022-09-04T15:07:12.199Z,22.26
2022-09-04T15:11:34.844Z,22.10
2022-09-04T15:15:46.734Z,21.70
2022-09-04T15:19:55.847Z,21.60
2022-09-04T15:24:03.861Z,21.56
2022-09-04T15:28:19.568Z,21.82
2022-09-04T15:32:25.007Z,23.26
2022-09-04T15:36:27.727Z,24.76
2022-09-04T15:40:37.797Z,26.41
2022-09-04T15:44:45.225Z,26.91
2022-09-04T15:49:04.166Z,26.73
2022-09-04T15:53:27.031Z,24.87
2022-09-04T15:58:05.007Z,23.60
2022-09-04T16:02:37.041Z,23.18
2022-09-04T16:06:42.311Z,22.37
2022-09-04T16:11:01.685Z,21.80
2022-09-04T16:15:11.040Z,21.29
2022-09-04T16:19:44.596Z,20.65
2022-09-04T16:23:47.185Z,20.32
2022-09-04T16:28:12.876Z,20.09
2022-09-04T16:32:26.316Z,20.04
2022-09-04T16:36:46.024Z,19.57
2022-09-04T16:41:15.565Z,19.80
2022-09-04T16:45:26.238Z,19.59
2022-09-04T16:49:39.565Z,19.44
2022-09-04T16:53:51.834Z,19.20
2022-09-04T16:58:16.823Z,19.09
2022-09-04T17:02:36.270Z,18.89
2022-09-04T17:07:03.068Z,18.82
2022-09-04T17:11:22.486Z,18.53
2022-09-04T17:15:30.396Z,18.31
2022-09-04T17:19:33.462Z,18.21
2022-09-04T17:29:17.722Z,18.04
2022-09-04T17:29:22.443Z,17.95
2022-09-04T17:38:49.244Z,17.91
2022-09-04T17:40:50.142Z,17.78
2022-09-04T17:42:10.667Z,17.65
2022-09-04T17:46:13.798Z,17.58
2022-09-04T17:50:20.020Z,17.44
2022-09-04T17:54:27.280Z,17.39
2022-09-04T17:58:35.614Z,17.24
2022-09-04T18:02:53.729Z,17.07
2022-09-04T18:07:57.761Z,16.85
2022-09-04T18:11:37.163Z,16.71
2022-09-04T18:16:07.651Z,16.40
2022-09-04T18:20:38.447Z,16.25
2022-09-04T18:24:53.816Z,16.15
2022-09-04T18:30:28.816Z,16.04
2022-09-04T18:37:23.394Z,15.97
2022-09-04T18:38:42.280Z,15.85
2022-09-04T18:50:28.223Z,15.71
2022-09-04T18:50:52.243Z,15.54
2022-09-04T18:51:58.691Z,15.39
2022-09-04T18:56:20.577Z,15.23
2022-09-04T19:00:30.388Z,15.26
2022-09-04T19:04:43.118Z,15.26
2022-09-04T19:08:50.515Z,15.31
2022-09-04T19:12:54.380Z,15.44
2022-09-04T19:17:22.285Z,15.48
2022-09-04T19:21:36.357Z,15.41
2022-09-04T19:25:45.688Z,15.39
2022-09-04T19:30:18.339Z,15.33
2022-09-04T19:34:41.415Z,15.26
2022-09-04T19:45:57.246Z,15.31
2022-09-04T19:46:00.356Z,15.40
2022-09-04T19:48:00.915Z,15.49
2022-09-04T19:53:34.344Z,15.50
2022-09-04T19:57:31.401Z,15.64
2022-09-04T20:01:23.945Z,15.68
2022-09-04T20:05:34.796Z,15.71
2022-09-04T20:09:45.518Z,15.65
2022-09-04T20:13:57.476Z,15.60
2022-09-04T20:18:10.165Z,15.55
2022-09-04T20:22:36.288Z,15.59
2022-09-04T20:26:47.521Z,15.51
2022-09-04T20:31:35.244Z,15.46
2022-09-04T20:35:47.026Z,15.42
2022-09-04T20:40:05.862Z,15.41
2022-09-04T20:44:31.125Z,15.30
2022-09-04T20:52:44.869Z,15.15
2022-09-04T20:53:55.704Z,15.00
2022-09-04T21:03:13.511Z,14.85
2022-09-04T21:03:17.495Z,14.85
2022-09-04T21:07:25.188Z,14.92
2022-09-04T21:12:02.459Z,14.82
2022-09-04T21:16:34.993Z,14.66
2022-09-04T21:21:03.268Z,14.73
2022-09-04T21:25:22.845Z,14.73
2022-09-04T21:29:37.005Z,14.71
2022-09-04T21:34:03.780Z,14.67
2022-09-04T21:38:19.019Z,14.70
2022-09-04T21:42:46.848Z,14.58
2022-09-04T21:46:55.223Z,14.53
2022-09-04T21:51:34.527Z,14.55
2022-09-04T21:59:04.646Z,14.49
2022-09-04T22:02:49.398Z,14.40
2022-09-04T22:04:47.534Z,14.38
2022-09-04T22:13:33.048Z,14.38
2022-09-04T22:13:57.411Z,14.34
2022-09-04T22:18:13.788Z,14.34
2022-09-04T22:22:38.001Z,14.29
2022-09-04T22:26:56.124Z,14.23
2022-09-04T22:31:20.134Z,14.22
2022-09-04T22:35:53.229Z,14.15
2022-09-04T22:40:13.950Z,14.16
2022-09-04T22:44:34.239Z,14.09
2022-09-04T22:49:12.218Z,14.05
2022-09-04T22:53:27.255Z,13.85
2022-09-04T22:57:51.247Z,13.86
2022-09-04T23:02:46.047Z,13.88
2022-09-04T23:12:05.064Z,13.81
2022-09-04T23:13:58.174Z,13.65
2022-09-04T23:16:26.278Z,13.48
2022-09-04T23:26:33.208Z,13.34
2022-09-04T23:26:46.995Z,13.15
2022-09-04T23:29:55.801Z,12.86
2022-09-04T23:34:27.934Z,12.64
2022-09-04T23:39:24.467Z,12.50
2022-09-04T23:44:15.969Z,12.39
2022-09-04T23:49:06.947Z,12.26
2022-09-04T23:53:58.750Z,12.13
2022-09-04T23:58:52.247Z,11.89
